Latest Coastal Weather Observations for Wynyard

IDT60701

Issued at 1:02 pm EST Friday 31 July 2015 (issued every 10 minutes, with the page automatically refreshed every 10 minutes)

About coastal observations | Map of coastal stations | Coastal observations for TAS | Marine services | Other Formats
Station Details ID: 091107 Name: WYNYARD AIRPORT Lat: -41.00 Lon: 145.73 Height: 12.0 m
Data from the previous 72 hours. | See also: Recent months at Wynyard
Date/Time
EST
Temp

°C
Wind Pressure Rain
since 9am
mm
Weather Cloud Vis
km
Sea
Height
m
Swell
Dir
 
Speed
knots
Gust
knots
hPa Trend Height
m
Period
s
Dir
31/01:00pm 9.9 WNW 8 11 1015.3 - 0.0 - Partly cloudy 10 - - - -
31/12:30pm 10.1 W 11 19 1015.8 - 0.0 - Partly cloudy 10 - - - -
31/12:00pm 11.1 WNW 11 16 1016.0 - 0.0 - Partly cloudy 10 - - - -
31/11:30am 10.5 WNW 11 14 1016.6 - 0.0 - Partly cloudy 10 - - - -
31/11:00am 10.0 WNW 10 14 1016.8 - 0.0 - Partly cloudy 10 - - - -
31/10:30am 8.9 WNW 7 10 1017.1 - 0.0 - - 10 - - - -
31/10:00am 7.9 W 7 9 1016.9 - 0.0 - Partly cloudy 10 - - - -
31/09:30am 5.8 W 5 7 1016.9 - 0.0 - Partly cloudy 10 - - - -
31/09:00am 4.5 WNW 5 6 1016.6 - 9.8 - - 10 - - - -
31/08:30am 2.5 SSW 5 6 1016.5 - 9.8 - - 10 - - - -
31/08:00am 1.6 WNW 7 8 1016.6 - 9.8 - Partly cloudy 10 - - - -
31/07:30am 0.0 WSW 6 7 1016.2 - 9.8 - - 10 - - - -
31/07:00am 0.6 WNW 6 7 1015.7 - 9.8 - Partly cloudy 10 - - - -
31/06:30am 1.2 W 8 9 1015.8 - 9.8 - Partly cloudy 10 - - - -
31/06:00am 0.7 WSW 5 7 1015.6 - 9.8 - - 10 - - - -
31/05:30am 1.5 WNW 4 5 1015.3 - 9.8 - - 10 - - - -
31/05:00am 2.1 SW 4 4 1015.1 - 9.8 - - 10 - - - -
31/04:30am 3.3 NW 6 7 1014.8 - 9.8 - Partly cloudy 10 - - - -
31/04:00am 3.5 NW 6 8 1014.9 - 9.8 - Partly cloudy 10 - - - -
31/03:30am 3.4 WNW 4 6 1014.5 - 9.8 - - 10 - - - -
31/03:00am 3.7 WSW 5 7 1014.1 - 9.8 - - 10 - - - -
31/02:30am 3.9 WSW 7 9 1014.0 - 9.8 - - 10 - - - -
31/02:00am 4.6 WSW 8 11 1013.7 - 9.8 - - 10 - - - -
31/01:30am 5.1 W 11 15 1013.3 - 9.8 - - 10 - - - -
31/01:00am 4.9 WSW 10 13 1012.8 - 9.8 - - 10 - - - -
31/12:30am 5.4 WSW 11 15 1012.3 - 9.8 - Partly cloudy 10 - - - -
31/12:09am 6.1 WSW 15 26 1011.9 - 9.8 - Partly cloudy 10 - - - -
31/12:00am 5.5 W 10 15 1012.0 - 9.8 - - 10 - - - -
 
Date/Time
EST
Temp

°C
Wind Pressure Rain
since 9am
mm
Weather Cloud Vis
km
Sea
Height
m
Swell
Dir
 
Speed
knots
Gust
knots
hPa Trend Height
m
Period
s
Dir
30/11:30pm 6.1 W 12 15 1011.4 - 9.8 - - 10 - - - -
30/11:00pm 6.5 WSW 16 23 1010.5 - 9.8 - - 10 - - - -
30/10:51pm 6.8 WSW 15 28 1010.5 - 9.8 - - 10 - - - -
30/10:30pm 6.7 WSW 13 18 1010.1 - 9.8 - - 10 - - - -
30/10:00pm 7.4 WSW 18 28 1009.1 - 9.8 - - 10 - - - -
30/09:54pm 7.4 WSW 16 28 1008.8 - 9.8 - - 10 - - - -
30/09:30pm 7.3 WSW 16 24 1007.9 - 9.8 - - 10 - - - -
30/09:00pm 7.3 WSW 13 19 1007.1 - 9.8 Recent precip. Mostly cloudy 10 - - - -
30/08:30pm 7.9 W 12 15 1006.6 - 9.4 - Partly cloudy 10 - - - -
30/08:00pm 7.8 W 10 13 1005.7 - 9.0 - Partly cloudy 10 - - - -
30/07:30pm 7.9 W 12 15 1005.2 - 9.0 - Partly cloudy 10 - - - -
30/07:29pm 7.9 W 12 16 1005.2 - 9.0 - Partly cloudy 10 - - - -
30/07:10pm 8.0 SW 20 30 1005.3 - 9.0 - Partly cloudy 10 - - - -
30/07:00pm 8.4 WSW 23 33 1005.2 - 8.8 - Partly cloudy 8 - - - -
30/06:59pm 8.5 WSW 24 36 1005.2 - 8.8 - Partly cloudy 7 - - - -
30/06:56pm 8.7 WSW 27 38 1004.9 - 8.8 - Partly cloudy 6 - - - -
30/06:47pm 9.3 WNW 23 38 1003.8 - 8.6 - Partly cloudy 6 - - - -
30/06:46pm 9.5 WNW 22 30 1003.8 - 8.6 - Partly cloudy 5 - - - -
30/06:30pm 9.7 NW 22 32 1004.0 - 8.0 - Partly cloudy 2 - - - -
30/06:00pm 9.4 NW 22 32 1004.4 - 7.0 Rain Cloudy 2 - - - -
30/05:45pm 9.4 NW 20 30 1004.6 - 6.2 - Partly cloudy 2 - - - -
30/05:37pm 9.3 WNW 20 28 1004.7 - 6.0 - Partly cloudy 2 - - - -
30/05:30pm 9.3 NW 21 31 1004.8 - 5.8 - Partly cloudy 3 - - - -
30/05:01pm 10.4 NW 18 29 1005.0 - 4.0 - Partly cloudy 5 - - - -
30/05:00pm 10.4 NW 18 25 1005.1 - 4.0 - Partly cloudy 6 - - - -
30/04:30pm 10.2 NW 15 23 1005.7 - 3.8 - Partly cloudy 8 - - - -
30/04:13pm 10.2 NW 15 27 1006.0 - 3.6 - Partly cloudy 7 - - - -
30/04:00pm 10.2 NW 13 19 1006.3 - 3.4 - Partly cloudy 9 - - - -
30/03:36pm 9.8 NW 16 23 1007.1 - 2.8 - Partly cloudy 7 - - - -
30/03:30pm 9.8 NW 18 29 1007.1 - 2.6 - Partly cloudy 6 - - - -
30/03:00pm 9.8 NW 17 31 1007.8 - 1.8 Rain Cloudy 5 - - - -
30/02:57pm 9.9 NW 18 31 1007.8 - 1.4 - Partly cloudy 5 - - - -
30/02:32pm 10.3 NW 15 27 1008.4 - 1.0 - Partly cloudy 6 - - - -
30/02:30pm 10.1 NW 15 24 1008.5 - 1.0 - Partly cloudy 6 - - - -
30/02:03pm 10.5 NW 18 29 1008.9 - 0.6 - Partly cloudy 10 - - - -
30/02:00pm 10.6 NW 18 26 1008.9 - 0.6 - Partly cloudy 10 - - - -
30/01:30pm 10.1 NW 14 19 1009.6 - 0.6 - Partly cloudy 10 - - - -
30/01:09pm 10.2 NW 18 29 1010.3 - 0.4 - Partly cloudy 5 - - - -
30/01:03pm 10.6 NW 17 29 1010.5 - 0.0 - Partly cloudy 7 - - - -
30/01:00pm 10.9 NW 17 25 1010.6 - 0.0 - Partly cloudy 9 - - - -
30/12:30pm 11.7 NNW 18 25 1011.3 - 0.0 - Partly cloudy 10 - - - -
30/12:04pm 11.8 NW 18 28 1012.0 - 0.0 - Partly cloudy 10 - - - -
30/12:00pm 11.9 NW 19 28 1012.1 - 0.0 - Cloudy 10 - - - -
30/11:30am 12.2 NNW 17 27 1013.2 - 0.0 - Partly cloudy 10 - - - -
30/11:21am 12.5 NNW 17 27 1013.3 - 0.0 - Partly cloudy 10 - - - -
30/11:00am 11.6 NNW 16 23 1013.6 - 0.0 - Partly cloudy 10 - - - -
30/10:30am 12.4 NW 16 23 1014.7 - 0.0 - Partly cloudy 10 - - - -
30/10:00am 11.2 NNW 16 21 1015.1 - 0.0 - Partly cloudy 10 - - - -
30/09:30am 11.1 NW 14 21 1015.7 - 0.0 - Partly cloudy 10 - - - -
30/09:00am 10.8 NNW 13 20 1016.1 - 0.6 - Cloudy 10 - - - -
30/08:30am 10.7 NNW 14 19 1016.4 - 0.6 - Partly cloudy 10 - - - -
30/08:00am 10.5 NNW 11 16 1016.6 - 0.6 - Cloudy 10 - - - -
30/07:30am 10.4 NW 11 16 1017.0 - 0.6 - Cloudy 10 - - - -
30/07:00am 10.5 NW 12 19 1017.2 - 0.6 - Partly cloudy 10 - - - -
30/06:30am 10.5 NNW 12 16 1017.4 - 0.6 - Partly cloudy 10 - - - -
30/06:00am 10.5 NW 12 16 1017.8 - 0.6 - Cloudy 10 - - - -
30/05:30am 10.5 NW 10 13 1018.2 - 0.6 - Partly cloudy 10 - - - -
30/05:00am 10.5 NNW 11 19 1018.7 - 0.6 - Partly cloudy 10 - - - -
30/04:30am 10.6 NNW 11 16 1019.1 - 0.6 - Partly cloudy 10 - - - -
30/04:00am 10.7 NW 12 19 1019.6 - 0.6 - Partly cloudy 10 - - - -
30/03:30am 10.7 NW 13 19 1019.8 - 0.6 - Cloudy 10 - - - -
30/03:00am 10.8 NW 12 18 1020.2 - 0.6 - Mostly cloudy 10 - - - -
30/02:30am 10.8 NW 12 15 1020.5 - 0.6 - Cloudy 10 - - - -
30/02:00am 10.7 NW 11 15 1021.0 - 0.6 - Partly cloudy 10 - - - -
30/01:30am 10.8 NW 12 16 1021.0 - 0.6 - Partly cloudy 10 - - - -
30/01:00am 10.9 NW 12 17 1021.9 - 0.6 - Partly cloudy 10 - - - -
30/12:30am 10.7 NW 11 14 1022.2 - 0.6 - Cloudy 10 - - - -
30/12:00am 9.1 WNW 5 9 1022.6 - 0.6 - Cloudy 10 - - - -
 
Date/Time
EST
Temp

°C
Wind Pressure Rain
since 9am
mm
Weather Cloud Vis
km
Sea
Height
m
Swell
Dir
 
Speed
knots
Gust
knots
hPa Trend Height
m
Period
s
Dir
29/11:30pm 8.1 CALM 0 0 1023.1 - 0.6 - Partly cloudy 10 - - - -
29/11:00pm 8.0 S 1 4 1023.4 - 0.6 - Cloudy 10 - - - -
29/10:30pm 8.4 CALM 0 0 1023.7 - 0.6 - Cloudy 10 - - - -
29/10:00pm 8.9 W 5 6 1024.0 - 0.6 - Partly cloudy 10 - - - -
29/09:30pm 9.6 WNW 7 9 1024.3 - 0.6 - Partly cloudy 10 - - - -
29/09:00pm 10.4 WNW 8 11 1024.4 - 0.6 - Cloudy 10 - - - -
29/08:30pm 10.5 NW 9 14 1024.6 - 0.6 - Cloudy 10 - - - -
29/08:00pm 10.5 NW 9 13 1024.7 - 0.6 - Cloudy 10 - - - -
29/07:30pm 10.5 NW 9 13 1024.7 - 0.6 - Cloudy 10 - - - -
29/07:00pm 9.2 W 4 5 1024.7 - 0.6 - Partly cloudy 10 - - - -
29/06:30pm 9.2 W 3 4 1024.5 - 0.6 - Cloudy 10 - - - -
29/06:00pm 9.7 WNW 6 7 1024.6 - 0.6 - Cloudy 10 - - - -
29/05:30pm 9.9 WNW 7 9 1024.7 - 0.6 - Partly cloudy 10 - - - -
29/05:00pm 10.0 W 9 13 1024.8 - 0.6 - Partly cloudy 10 - - - -
29/04:30pm 10.5 WNW 13 18 1025.1 - 0.6 - Partly cloudy 10 - - - -
29/04:19pm 10.3 WNW 9 20 1025.2 - 0.6 - Partly cloudy 10 - - - -
29/04:00pm 10.7 W 4 5 1025.3 - 0.6 - Partly cloudy 10 - - - -
29/03:30pm 10.6 W 5 7 1025.6 - 0.6 - Partly cloudy 10 - - - -
29/03:00pm 10.4 W 7 10 1025.7 - 0.6 Recent precip. Mostly cloudy 10 - - - -
29/02:59pm 10.4 WNW 7 11 1025.7 - 0.6 - Partly cloudy 10 - - - -
29/02:41pm 10.4 NW 11 16 1026.0 - 0.4 - Partly cloudy 5 - - - -
29/02:30pm 10.8 NW 11 16 1026.0 - 0.2 - Partly cloudy 5 - - - -
29/02:29pm 10.7 NW 11 16 1026.0 - 0.2 - Partly cloudy 5 - - - -
29/02:06pm 10.7 NW 12 17 1026.2 - 0.2 - Partly cloudy 8 - - - -
29/02:00pm 10.7 NW 13 19 1026.2 - 0.2 - Partly cloudy 8 - - - -
29/01:48pm 10.7 NW 13 19 1026.4 - 0.2 - Partly cloudy 5 - - - -
29/01:30pm 10.6 NW 12 16 1026.6 - 0.0 - Partly cloudy 7 - - - -
29/01:04pm 10.6 NW 9 13 1027.0 - 0.0 - Partly cloudy 10 - - - -
29/01:00pm 10.5 NW 10 14 1027.1 - 0.0 - Partly cloudy 10 - - - -
29/12:30pm 10.7 NW 9 13 1027.8 - 0.0 - Partly cloudy 10 - - - -
29/12:11pm 11.2 NW 10 16 1028.2 - 0.0 - Partly cloudy 10 - - - -
29/12:00pm 11.5 NW 8 13 1028.4 - 0.0 - Cloudy 10 - - - -
29/11:30am 10.9 WNW 7 10 1028.9 - 0.0 - Partly cloudy 10 - - - -
29/11:10am 10.9 NW 5 7 1029.2 - 0.0 - Partly cloudy 10 - - - -
29/11:00am 10.2 WNW 7 8 1029.3 - 0.0 - Partly cloudy 10 - - - -
29/10:30am 9.9 W 7 10 1029.5 - 0.0 - Partly cloudy 10 - - - -
29/10:05am 9.2 WSW 4 5 1029.7 - 0.0 - Partly cloudy 10 - - - -
29/10:00am 9.0 SW 3 5 1029.7 - 0.0 - Partly cloudy 10 - - - -
29/09:41am 7.1 W 3 3 1029.8 - 0.0 - Partly cloudy 5 - - - -
29/09:30am 6.7 W 3 3 1029.9 - 0.0 - Partly cloudy 10 - - - -
29/09:09am 5.9 WNW 2 3 1030.1 - 0.0 - Partly cloudy 10 - - - -
29/09:00am 6.0 CALM 0 2 1030.2 - 0.6 - Cloudy 6 - - - -
29/08:44am 5.7 WNW 4 5 1030.4 - 0.6 - Partly cloudy 5 - - - -
29/08:31am 5.1 WSW 4 5 1030.4 - 0.6 - Partly cloudy 9 - - - -
29/08:30am 5.0 WSW 4 5 1030.4 - 0.6 - Partly cloudy 9 - - - -
29/08:10am 3.7 W 5 6 1030.2 - 0.6 - Partly cloudy 2 - - - -
29/08:00am 3.7 WNW 4 5 1030.1 - 0.6 - Partly cloudy 3 - - - -
29/07:55am 3.8 WNW 3 5 1030.1 - 0.6 - Partly cloudy 5 - - - -
29/07:30am 4.3 SW 4 6 1030.2 - 0.6 - Partly cloudy 10 - - - -
29/07:21am 4.1 WSW 4 5 1030.2 - 0.6 - Partly cloudy 10 - - - -
29/07:13am 4.1 SW 4 5 1030.3 - 0.6 - Partly cloudy 9 - - - -
29/07:00am 3.9 W 5 6 1030.3 - 0.4 - Partly cloudy 3 - - - -
29/06:57am 3.7 WSW 5 6 1030.2 - 0.4 - Partly cloudy 5 - - - -
29/06:30am 3.1 W 5 6 1030.0 - 0.0 - Partly cloudy 10 - - - -
29/06:00am 2.5 W 6 7 1029.9 - 0.0 - Cloudy 10 - - - -
29/05:30am 1.7 WSW 5 6 1029.6 - 0.0 - - 10 - - - -
29/05:19am 2.2 W 5 5 1029.6 - 0.0 - - 7 - - - -
29/05:00am 2.3 W 4 4 1029.5 - 0.0 - - 4 - - - -
29/04:30am 1.4 WSW 5 5 1029.6 - 0.0 - - 1 - - - -
29/04:00am 2.4 WNW 4 5 1029.5 - 0.0 - - 0.6 - - - -
29/03:30am 3.1 NW 4 5 1029.7 - 0.0 - - 2 - - - -
29/03:00am 3.6 NW 3 5 1030.0 - 0.0 - - 1 - - - -
29/02:30am 2.6 NW 4 5 1030.1 - 0.0 - - 2 - - - -
29/02:00am 3.6 NW 5 5 1030.0 - 0.0 - - 3 - - - -
29/01:54am 3.4 NW 5 6 1030.0 - 0.0 - - 5 - - - -
29/01:52am 4.3 NW 5 8 1030.0 - 0.0 - - 7 - - - -
29/01:30am 3.6 NW 6 7 1030.0 - 0.0 - - 3 - - - -
29/01:00am 3.6 WNW 5 6 1030.2 - 0.0 - - 1 - - - -
29/12:30am 5.6 NW 6 7 1030.4 - 0.0 - - 4 - - - -
29/12:00am 6.0 NW 5 6 1030.5 - 0.0 - - 4 - - - -
 
Date/Time
EST
Temp

°C
Wind Pressure Rain
since 9am
mm
Weather Cloud Vis
km
Sea
Height
m
Swell
Dir
 
Speed
knots
Gust
knots
hPa Trend Height
m
Period
s
Dir
28/11:37pm 5.4 WNW 5 5 1030.5 - 0.0 - - 5 - - - -
28/11:30pm 5.8 WNW 5 6 1030.5 - 0.0 - - 7 - - - -
28/11:00pm 6.7 WNW 5 6 1030.6 - 0.0 - - 10 - - - -
28/10:30pm 6.0 WSW 7 8 1030.6 - 0.0 - - 10 - - - -
28/10:00pm 6.4 W 8 9 1030.5 - 0.0 - - 10 - - - -
28/09:30pm 6.8 W 9 10 1030.3 - 0.0 - - 10 - - - -
28/09:00pm 7.4 WNW 5 6 1030.4 - 0.0 - - 10 - - - -
28/08:30pm 8.5 WNW 5 8 1030.2 - 0.0 - - 10 - - - -
28/08:00pm 8.5 W 7 8 1030.1 - 0.0 - - 10 - - - -
28/07:30pm 9.1 W 9 12 1030.0 - 0.0 - Partly cloudy 10 - - - -
28/07:00pm 9.6 W 10 13 1030.0 - 0.0 - Partly cloudy 10 - - - -
28/06:30pm 9.9 W 10 13 1029.8 - 0.0 - Partly cloudy 10 - - - -
28/06:00pm 9.9 W 8 10 1029.5 - 0.0 - Cloudy 10 - - - -
28/05:30pm 10.5 W 9 16 1029.2 - 0.0 - Partly cloudy 10 - - - -
28/05:00pm 11.0 WSW 13 17 1029.0 - 0.0 - Partly cloudy 10 - - - -
28/04:30pm 11.9 WSW 10 18 1028.8 - 0.0 - Partly cloudy 10 - - - -
28/04:00pm 12.3 WSW 12 16 1028.5 - 0.0 - Partly cloudy 10 - - - -
28/03:30pm 12.5 WSW 15 22 1028.3 - 0.0 - - 10 - - - -
28/03:00pm 12.8 WSW 17 21 1028.0 - 0.0 - Mostly clear 10 - - - -
28/02:30pm 12.7 WSW 18 25 1028.0 - 0.0 - Partly cloudy 10 - - - -
28/02:00pm 12.2 WSW 16 21 1028.0 - 0.0 - Partly cloudy 10 - - - -
28/01:30pm 12.2 WSW 17 22 1027.9 - 0.0 - Partly cloudy 10 - - - -
28/01:12pm 13.6 WSW 17 27 1027.9 - 0.0 - Partly cloudy 10 - - - -

Other Formats:

Comma delimited format used in spreadsheet applications
http://www.bom.gov.au/fwo/IDT60701/IDT60701.95957.axf

JavaScript Object Notation format (JSON) in row-major order
http://www.bom.gov.au/fwo/IDT60701/IDT60701.95957.json